createdAt,value
2022-10-17T00:00:47.193Z,8.17
2022-10-17T00:03:36.468Z,8.40
2022-10-17T00:06:25.488Z,7.93
2022-10-17T00:09:15.699Z,7.43
2022-10-17T00:12:04.564Z,8.20
2022-10-17T00:14:53.370Z,8.23
2022-10-17T00:17:42.233Z,8.00
2022-10-17T00:20:32.756Z,8.37
2022-10-17T00:23:21.609Z,7.97
2022-10-17T00:26:11.877Z,8.37
2022-10-17T00:29:00.757Z,8.90
2022-10-17T00:31:49.906Z,8.40
2022-10-17T00:34:38.749Z,7.40
2022-10-17T00:37:27.816Z,8.60
2022-10-17T00:40:16.727Z,7.70
2022-10-17T00:43:08.099Z,8.30
2022-10-17T00:45:57.108Z,7.57
2022-10-17T00:48:46.022Z,7.57
2022-10-17T00:51:38.620Z,8.37
2022-10-17T00:54:29.213Z,9.00
2022-10-17T00:57:18.511Z,8.93
2022-10-17T01:00:10.608Z,7.50
2022-10-17T01:02:59.538Z,8.30
2022-10-17T01:05:48.689Z,7.93
2022-10-17T01:08:37.985Z,8.40
2022-10-17T01:11:32.197Z,8.70
2022-10-17T01:14:23.938Z,8.73
2022-10-17T01:17:19.273Z,8.60
2022-10-17T01:20:20.045Z,8.93
2022-10-17T01:23:19.905Z,8.90
2022-10-17T01:26:13.155Z,8.30
2022-10-17T01:29:16.482Z,8.27
2022-10-17T01:32:10.278Z,8.53
2022-10-17T01:35:01.206Z,8.33
2022-10-17T01:40:49.785Z,9.50
2022-10-17T01:43:40.808Z,9.30
2022-10-17T01:46:30.774Z,10.03
2022-10-17T01:49:23.569Z,9.17
2022-10-17T01:52:14.274Z,9.10
2022-10-17T01:55:07.859Z,10.53
2022-10-17T01:57:57.905Z,9.67
2022-10-17T02:00:47.029Z,10.27
2022-10-17T02:03:36.705Z,8.97
2022-10-17T02:06:26.879Z,9.40
2022-10-17T02:09:20.584Z,9.20
2022-10-17T02:12:22.123Z,9.53
2022-10-17T02:15:16.038Z,8.93
2022-10-17T02:18:10.980Z,10.17
2022-10-17T02:21:02.532Z,9.50
2022-10-17T02:23:54.994Z,9.20
2022-10-17T02:26:46.435Z,9.17
2022-10-17T02:29:38.231Z,9.00
2022-10-17T02:32:30.454Z,8.80
2022-10-17T02:35:19.838Z,10.33
2022-10-17T02:38:10.494Z,9.67
2022-10-17T02:41:00.838Z,9.73
2022-10-17T02:43:50.526Z,9.30
2022-10-17T02:46:39.962Z,9.70
2022-10-17T02:49:30.097Z,11.10
2022-10-17T02:52:23.786Z,9.60
2022-10-17T02:55:15.602Z,9.43
2022-10-17T02:58:08.843Z,10.17
2022-10-17T03:00:57.703Z,9.93
2022-10-17T03:03:46.569Z,9.93
2022-10-17T03:06:35.513Z,10.40
2022-10-17T03:09:24.342Z,8.93
2022-10-17T03:12:13.150Z,10.00
2022-10-17T03:15:03.330Z,8.50
2022-10-17T03:17:52.143Z,10.10
2022-10-17T03:20:40.940Z,9.00
2022-10-17T03:23:29.781Z,9.43
2022-10-17T03:26:18.612Z,10.43
2022-10-17T03:29:07.555Z,10.43
2022-10-17T03:31:57.738Z,10.97
2022-10-17T03:34:46.934Z,10.43
2022-10-17T03:37:35.755Z,9.93
2022-10-17T03:40:24.688Z,9.97
2022-10-17T03:43:13.530Z,9.97
2022-10-17T03:46:02.372Z,11.07
2022-10-17T03:48:52.551Z,10.13
2022-10-17T03:51:41.579Z,10.93
2022-10-17T03:54:30.990Z,10.00
2022-10-17T03:57:20.170Z,10.80
2022-10-17T04:00:09.713Z,9.73
2022-10-17T04:02:59.217Z,9.47
2022-10-17T04:05:49.419Z,8.70
2022-10-17T04:08:38.253Z,10.00
2022-10-17T04:11:27.094Z,9.80
2022-10-17T04:14:15.974Z,10.67
2022-10-17T04:17:05.029Z,10.43
2022-10-17T04:19:53.879Z,10.37
2022-10-17T04:22:44.165Z,9.40
2022-10-17T04:25:36.010Z,9.97
2022-10-17T04:28:25.934Z,9.27
2022-10-17T04:31:15.841Z,9.23
2022-10-17T04:34:05.157Z,9.03
2022-10-17T04:36:54.073Z,8.93
2022-10-17T04:39:44.573Z,9.63
2022-10-17T04:42:33.429Z,9.43
2022-10-17T04:45:22.242Z,9.20
2022-10-17T04:48:11.258Z,9.00
2022-10-17T04:51:01.189Z,9.60
2022-10-17T04:53:50.018Z,9.87
2022-10-17T04:56:40.224Z,8.80
2022-10-17T04:59:31.223Z,9.43
2022-10-17T05:02:20.282Z,8.60
2022-10-17T05:05:09.502Z,11.13
2022-10-17T05:07:58.620Z,9.00
2022-10-17T05:10:47.483Z,9.17
2022-10-17T05:13:37.662Z,8.50
2022-10-17T05:16:26.847Z,10.60
2022-10-17T05:19:15.845Z,9.70
2022-10-17T05:22:04.648Z,10.50
2022-10-17T05:24:53.486Z,9.53
2022-10-17T05:27:42.284Z,9.37
2022-10-17T05:30:35.219Z,10.00
2022-10-17T05:33:25.624Z,10.50
2022-10-17T05:36:16.985Z,10.47
2022-10-17T05:39:05.963Z,9.00
2022-10-17T05:41:54.869Z,10.33
2022-10-17T05:44:43.718Z,11.43
2022-10-17T05:47:33.878Z,10.07
2022-10-17T05:50:24.059Z,10.40
2022-10-17T05:53:12.923Z,12.37
2022-10-17T05:56:02.784Z,11.93
2022-10-17T05:58:55.067Z,11.73
2022-10-17T06:01:45.159Z,11.33
2022-10-17T06:04:35.551Z,10.20
2022-10-17T06:07:24.364Z,11.97
2022-10-17T06:10:16.175Z,10.70
2022-10-17T06:13:05.143Z,11.27
2022-10-17T06:15:54.112Z,12.13
2022-10-17T06:18:42.992Z,11.30
2022-10-17T06:21:36.400Z,11.20
2022-10-17T06:24:25.212Z,11.40
2022-10-17T06:27:14.017Z,12.03
2022-10-17T06:30:02.870Z,11.00
2022-10-17T06:32:51.734Z,11.03
2022-10-17T06:35:40.567Z,11.27
2022-10-17T06:38:30.832Z,11.53
2022-10-17T06:41:19.829Z,11.17
2022-10-17T06:44:11.117Z,8.67
2022-10-17T06:47:00.330Z,10.70
2022-10-17T06:49:49.177Z,9.20
2022-10-17T06:52:38.021Z,9.80
2022-10-17T06:55:28.635Z,8.80
2022-10-17T06:58:18.437Z,7.13
2022-10-17T07:04:02.630Z,6.47
2022-10-17T07:06:51.551Z,6.90
2022-10-17T07:09:40.473Z,5.97
2022-10-17T07:12:30.655Z,6.10
2022-10-17T07:15:19.717Z,6.03
2022-10-17T07:18:08.553Z,6.30
2022-10-17T07:20:57.396Z,6.73
2022-10-17T07:23:46.218Z,7.00
2022-10-17T07:26:35.126Z,6.20
2022-10-17T07:29:25.344Z,5.80
2022-10-17T07:32:14.162Z,4.97
2022-10-17T07:35:02.990Z,5.37
2022-10-17T07:37:51.795Z,5.30
2022-10-17T07:40:40.670Z,4.70
2022-10-17T07:43:30.571Z,4.33
2022-10-17T07:46:20.744Z,4.07
2022-10-17T07:49:09.609Z,4.23
2022-10-17T07:51:58.767Z,4.37
2022-10-17T07:54:47.639Z,3.40
2022-10-17T07:57:36.746Z,3.97
2022-10-17T08:00:25.621Z,3.87
2022-10-17T08:03:15.918Z,3.13
2022-10-17T08:06:05.205Z,3.37
2022-10-17T08:08:53.996Z,3.90
2022-10-17T08:11:43.861Z,4.30
2022-10-17T08:14:32.760Z,3.93
2022-10-17T08:17:21.616Z,3.80
2022-10-17T08:20:12.592Z,4.37
2022-10-17T08:23:01.465Z,4.47
2022-10-17T08:25:50.266Z,4.50
2022-10-17T08:28:39.470Z,3.40
2022-10-17T08:31:28.706Z,3.37
2022-10-17T08:34:17.608Z,3.60
2022-10-17T08:37:07.880Z,4.10
2022-10-17T08:39:56.757Z,3.27
2022-10-17T08:43:03.940Z,3.53
2022-10-17T08:45:55.021Z,3.13
2022-10-17T08:48:46.586Z,3.23
2022-10-17T08:51:37.558Z,3.80
2022-10-17T08:54:33.032Z,3.17
2022-10-17T08:57:21.895Z,3.23
2022-10-17T09:00:15.586Z,2.90
2022-10-17T09:03:11.526Z,3.60
2022-10-17T09:06:12.718Z,4.85
2022-10-17T09:09:07.590Z,3.33
2022-10-17T09:12:04.559Z,3.40
2022-10-17T09:15:01.868Z,3.85
2022-10-17T09:17:53.590Z,2.92
2022-10-17T09:20:44.906Z,3.20
2022-10-17T09:23:40.353Z,3.23
2022-10-17T09:26:31.786Z,4.20
2022-10-17T09:29:24.895Z,3.33
2022-10-17T09:32:17.423Z,2.47
2022-10-17T09:35:06.724Z,3.13
2022-10-17T09:37:56.043Z,2.77
2022-10-17T09:40:45.782Z,2.47
2022-10-17T09:43:34.642Z,3.27
2022-10-17T09:46:27.445Z,3.50
2022-10-17T09:49:19.250Z,3.47
2022-10-17T09:52:12.514Z,4.07
2022-10-17T09:55:03.424Z,2.60
2022-10-17T09:57:57.211Z,3.60
2022-10-17T10:00:48.802Z,3.80
2022-10-17T10:03:39.369Z,3.03
2022-10-17T10:06:28.422Z,3.40
2022-10-17T10:09:23.100Z,3.00
2022-10-17T10:12:18.618Z,2.77
2022-10-17T10:15:22.404Z,3.00
2022-10-17T10:21:21.893Z,2.57
2022-10-17T10:24:14.434Z,2.83
2022-10-17T10:27:04.511Z,2.47
2022-10-17T10:29:54.364Z,2.60
2022-10-17T10:32:47.182Z,2.93
2022-10-17T10:35:37.383Z,2.43
2022-10-17T10:38:27.905Z,2.57
2022-10-17T10:41:16.730Z,2.97
2022-10-17T10:44:06.422Z,2.87
2022-10-17T10:47:08.652Z,2.20
2022-10-17T10:50:09.259Z,2.40
2022-10-17T10:53:09.504Z,2.83
2022-10-17T10:56:01.511Z,2.73
2022-10-17T10:58:54.825Z,2.73
2022-10-17T11:01:47.473Z,2.73
2022-10-17T11:04:39.589Z,2.70
2022-10-17T11:07:31.355Z,3.40
2022-10-17T11:10:22.237Z,2.30
2022-10-17T11:13:14.915Z,2.80
2022-10-17T11:16:06.126Z,2.50
2022-10-17T11:18:56.731Z,2.83
2022-10-17T11:21:48.427Z,3.30
2022-10-17T11:24:39.769Z,3.10
2022-10-17T11:27:29.743Z,3.10
2022-10-17T11:30:20.035Z,3.10
2022-10-17T11:33:10.891Z,2.80
2022-10-17T11:36:03.061Z,3.07
2022-10-17T11:38:54.648Z,3.03
2022-10-17T11:41:45.419Z,3.23
2022-10-17T11:44:36.477Z,3.80
2022-10-17T11:47:32.000Z,3.30
2022-10-17T11:53:35.513Z,2.90
2022-10-17T11:56:27.654Z,2.37
2022-10-17T11:59:46.954Z,3.10
2022-10-17T12:02:40.314Z,2.60
2022-10-17T12:05:30.570Z,2.50
2022-10-17T12:08:28.017Z,2.70
2022-10-17T12:11:26.221Z,3.00
2022-10-17T12:14:33.786Z,2.80
2022-10-17T12:17:34.745Z,3.47
2022-10-17T12:20:44.620Z,2.40
2022-10-17T12:23:36.393Z,3.30
2022-10-17T12:26:27.706Z,3.23
2022-10-17T12:29:25.644Z,2.67
2022-10-17T12:32:14.597Z,3.10
2022-10-17T12:35:03.533Z,2.50
2022-10-17T12:38:02.585Z,3.40
2022-10-17T12:41:02.851Z,2.70
2022-10-17T12:43:53.275Z,2.63
2022-10-17T12:46:50.999Z,3.27
2022-10-17T12:49:41.190Z,3.00
2022-10-17T12:52:44.925Z,3.57
2022-10-17T12:55:34.315Z,2.50
2022-10-17T12:58:24.767Z,3.60
2022-10-17T13:01:24.121Z,3.53
2022-10-17T13:04:13.385Z,2.87
2022-10-17T13:07:03.321Z,3.23
2022-10-17T13:09:52.866Z,2.80
2022-10-17T13:12:41.747Z,3.07
2022-10-17T13:15:32.070Z,3.10
2022-10-17T13:18:22.300Z,3.20
2022-10-17T13:21:16.469Z,2.83
2022-10-17T13:24:20.137Z,3.43
2022-10-17T13:27:23.135Z,3.27
2022-10-17T13:30:31.199Z,2.97
2022-10-17T13:33:30.947Z,3.63
2022-10-17T13:36:20.668Z,3.33
2022-10-17T13:39:12.508Z,3.20
2022-10-17T13:42:04.354Z,3.33
2022-10-17T13:44:53.636Z,4.00
2022-10-17T13:47:42.931Z,3.40
2022-10-17T13:50:44.595Z,3.13
2022-10-17T13:53:35.015Z,2.93
2022-10-17T13:56:29.853Z,3.40
2022-10-17T13:59:24.076Z,4.77
2022-10-17T14:02:15.561Z,2.93
2022-10-17T14:05:22.925Z,3.70
2022-10-17T14:08:22.716Z,4.33
2022-10-17T14:11:15.938Z,3.60
2022-10-17T14:14:06.019Z,3.17
2022-10-17T14:16:55.097Z,3.77
2022-10-17T14:19:46.056Z,2.97
2022-10-17T14:22:40.351Z,3.43
2022-10-17T14:25:31.691Z,3.50
2022-10-17T14:28:24.123Z,3.90
2022-10-17T14:31:15.053Z,3.33
2022-10-17T14:34:04.522Z,3.07
2022-10-17T14:36:53.961Z,3.83
2022-10-17T14:39:42.813Z,3.87
2022-10-17T14:42:33.083Z,4.13
2022-10-17T14:45:25.339Z,3.07
2022-10-17T14:48:16.068Z,4.07
2022-10-17T14:51:09.304Z,3.30
2022-10-17T14:54:05.270Z,3.83
2022-10-17T14:56:55.960Z,3.30
2022-10-17T14:59:55.189Z,3.30
2022-10-17T15:02:44.793Z,3.10
2022-10-17T15:05:33.633Z,3.00
2022-10-17T15:08:23.683Z,3.90
2022-10-17T15:11:12.858Z,3.60
2022-10-17T15:14:01.744Z,3.40
2022-10-17T15:16:51.969Z,4.00
2022-10-17T15:19:40.827Z,4.00
2022-10-17T15:22:31.463Z,4.27
2022-10-17T15:25:20.699Z,3.50
2022-10-17T15:28:10.843Z,3.80
2022-10-17T15:30:59.661Z,3.50
2022-10-17T15:33:49.880Z,3.87
2022-10-17T15:36:41.739Z,4.47
2022-10-17T15:39:30.583Z,4.40
2022-10-17T15:42:19.447Z,4.27
2022-10-17T15:48:05.629Z,4.10
2022-10-17T15:50:55.889Z,4.30
2022-10-17T15:53:45.069Z,4.17
2022-10-17T15:56:36.121Z,4.50
2022-10-17T15:59:28.805Z,4.57
2022-10-17T16:02:18.531Z,4.27
2022-10-17T16:05:11.673Z,4.33
2022-10-17T16:08:01.882Z,4.40
2022-10-17T16:10:51.064Z,4.27
2022-10-17T16:13:41.450Z,4.87
2022-10-17T16:16:31.234Z,5.10
2022-10-17T16:19:20.809Z,5.60
2022-10-17T16:22:13.617Z,4.90
2022-10-17T16:25:09.457Z,5.07
2022-10-17T16:27:59.230Z,5.90
2022-10-17T16:30:49.142Z,5.27
2022-10-17T16:33:38.041Z,5.77
2022-10-17T16:36:27.096Z,5.90
2022-10-17T16:39:16.010Z,5.30
2022-10-17T16:42:06.247Z,5.67
2022-10-17T16:44:55.080Z,5.00
2022-10-17T16:47:43.999Z,6.73
2022-10-17T16:50:35.349Z,5.60
2022-10-17T16:53:24.271Z,5.40
2022-10-17T16:56:14.002Z,7.30
2022-10-17T16:59:04.222Z,7.73
2022-10-17T17:01:53.097Z,7.20
2022-10-17T17:04:41.946Z,7.03
2022-10-17T17:07:31.008Z,8.27
2022-10-17T17:10:20.178Z,5.67
2022-10-17T17:13:09.037Z,5.57
2022-10-17T17:16:05.519Z,5.83
2022-10-17T17:18:55.813Z,6.50
2022-10-17T17:21:50.613Z,5.60
2022-10-17T17:24:39.467Z,6.57
2022-10-17T17:27:29.715Z,6.30
2022-10-17T17:30:18.876Z,7.37
2022-10-17T17:33:09.201Z,6.50
2022-10-17T17:35:58.577Z,6.57
2022-10-17T17:38:48.084Z,6.80
2022-10-17T17:41:37.092Z,7.10
2022-10-17T17:44:25.968Z,6.30
2022-10-17T17:47:14.833Z,16.17
2022-10-17T17:50:05.187Z,7.47
2022-10-17T17:52:54.560Z,8.50
2022-10-17T17:55:43.408Z,7.80
2022-10-17T17:58:32.354Z,6.83
2022-10-17T18:01:22.383Z,7.50
2022-10-17T18:04:11.449Z,7.80
2022-10-17T18:07:01.895Z,6.90
2022-10-17T18:09:51.619Z,6.27
2022-10-17T18:12:40.420Z,7.00
2022-10-17T18:15:29.301Z,6.80
2022-10-17T18:18:18.106Z,4.97
2022-10-17T18:21:07.080Z,6.73
2022-10-17T18:23:57.306Z,6.27
2022-10-17T18:26:46.219Z,5.97
2022-10-17T18:29:35.108Z,4.50
2022-10-17T18:32:24.066Z,5.23
2022-10-17T18:35:12.948Z,6.23
2022-10-17T18:38:01.919Z,5.27
2022-10-17T18:40:52.198Z,3.90
2022-10-17T18:43:42.053Z,4.30
2022-10-17T18:46:31.668Z,6.77
2022-10-17T18:49:23.042Z,4.70
2022-10-17T18:52:11.985Z,6.00
2022-10-17T18:55:00.784Z,5.40
2022-10-17T18:57:51.153Z,6.00
2022-10-17T19:00:40.111Z,5.57
2022-10-17T19:03:28.942Z,6.20
2022-10-17T19:06:19.324Z,5.97
2022-10-17T19:09:09.259Z,9.27
2022-10-17T19:11:58.129Z,7.43
2022-10-17T19:14:50.579Z,7.03
2022-10-17T19:17:39.595Z,6.70
2022-10-17T19:20:28.501Z,5.83
2022-10-17T19:23:17.596Z,5.67
2022-10-17T19:26:07.421Z,7.13
2022-10-17T19:28:56.671Z,6.23
2022-10-17T19:31:48.660Z,6.17
2022-10-17T19:34:37.793Z,5.57
2022-10-17T19:37:26.792Z,5.20
2022-10-17T19:40:15.747Z,5.57
2022-10-17T19:43:04.625Z,4.70
2022-10-17T19:45:56.680Z,5.97
2022-10-17T19:48:47.114Z,5.87
2022-10-17T19:51:35.979Z,6.00
2022-10-17T19:54:24.937Z,5.77
2022-10-17T19:57:13.739Z,7.27
2022-10-17T20:00:02.577Z,6.83
2022-10-17T20:02:51.426Z,5.87
2022-10-17T20:05:41.588Z,5.33
2022-10-17T20:08:30.402Z,6.03
2022-10-17T20:11:20.247Z,6.60
2022-10-17T20:14:09.306Z,6.73
2022-10-17T20:16:58.118Z,6.10
2022-10-17T20:19:47.067Z,5.20
2022-10-17T20:22:37.245Z,7.13
2022-10-17T20:25:26.074Z,6.43
2022-10-17T20:28:15.056Z,6.00
2022-10-17T20:31:03.894Z,5.93
2022-10-17T20:33:55.842Z,5.40
2022-10-17T20:36:45.295Z,6.87
2022-10-17T20:39:35.583Z,5.80
2022-10-17T20:42:24.400Z,5.43
2022-10-17T20:45:13.367Z,5.70
2022-10-17T20:48:02.144Z,5.37
2022-10-17T20:50:51.366Z,6.07
2022-10-17T20:53:40.230Z,7.03
2022-10-17T20:56:31.162Z,4.97
2022-10-17T20:59:20.018Z,5.03
2022-10-17T21:02:09.094Z,5.77
2022-10-17T21:04:58.022Z,5.47
2022-10-17T21:07:46.843Z,5.90
2022-10-17T21:10:35.974Z,5.37
2022-10-17T21:13:26.155Z,6.30
2022-10-17T21:16:15.680Z,6.43
2022-10-17T21:19:05.082Z,6.03
2022-10-17T21:21:53.893Z,7.83
2022-10-17T21:24:42.730Z,5.30
2022-10-17T21:27:31.595Z,5.20
2022-10-17T21:30:21.930Z,5.10
2022-10-17T21:33:10.740Z,5.20
2022-10-17T21:35:59.626Z,4.50
2022-10-17T21:38:49.414Z,4.37
2022-10-17T21:41:38.249Z,3.07
2022-10-17T21:44:28.036Z,4.07
2022-10-17T21:47:18.245Z,3.97
2022-10-17T21:50:07.224Z,4.17
2022-10-17T21:52:56.050Z,4.13
2022-10-17T21:55:44.881Z,4.00
2022-10-17T21:58:34.106Z,3.90
2022-10-17T22:01:24.442Z,4.00
2022-10-17T22:04:15.818Z,4.83
2022-10-17T22:07:04.676Z,5.60
2022-10-17T22:09:53.514Z,4.30
2022-10-17T22:12:42.391Z,3.90
2022-10-17T22:15:31.379Z,4.57
2022-10-17T22:18:20.215Z,4.00
2022-10-17T22:21:14.126Z,4.37
2022-10-17T22:24:03.902Z,3.80
2022-10-17T22:26:52.914Z,4.60
2022-10-17T22:29:41.761Z,5.03
2022-10-17T22:32:30.652Z,3.90
2022-10-17T22:35:19.488Z,4.90
2022-10-17T22:38:09.925Z,4.70
2022-10-17T22:40:58.752Z,4.60
2022-10-17T22:43:47.589Z,3.90
2022-10-17T22:46:36.437Z,4.50
2022-10-17T22:49:25.256Z,4.90
2022-10-17T22:52:14.124Z,4.87
2022-10-17T22:55:05.020Z,4.20
2022-10-17T22:57:54.196Z,5.00
2022-10-17T23:00:42.998Z,3.83
2022-10-17T23:03:32.501Z,4.47
2022-10-17T23:06:21.779Z,5.67
2022-10-17T23:09:10.592Z,4.97
2022-10-17T23:12:00.787Z,4.90
2022-10-17T23:14:49.607Z,5.77
2022-10-17T23:17:38.445Z,5.40
2022-10-17T23:20:27.689Z,4.13
2022-10-17T23:23:16.896Z,4.03
2022-10-17T23:26:06.622Z,5.03
2022-10-17T23:28:56.855Z,4.97
2022-10-17T23:31:45.736Z,4.90
2022-10-17T23:34:34.575Z,4.53
2022-10-17T23:37:23.416Z,5.00
2022-10-17T23:40:12.832Z,4.57
2022-10-17T23:43:01.667Z,5.30
2022-10-17T23:45:51.855Z,6.03
2022-10-17T23:48:40.869Z,5.50
2022-10-17T23:51:29.719Z,4.70
2022-10-17T23:54:18.722Z,5.73
2022-10-17T23:57:07.577Z,5.80
2022-10-17T23:59:56.424Z,5.37
